Time;durP1;ratioP1;P1;durP2;ratioP2;P2;SDS_P1;SDS_P2;PMS_P1;PMS_P2;Temp;Humidity;BMP_temperature;BMP_pressure;BME280_temperature;BME280_humidity;BME280_pressure;Samples;Min_cycle;Max_cycle;Signal;HPM_P1;HPM_P2
2022/11/13 00:00:05;;;;;;;4.22;2.60;;;20.80;65.60;;;;;;4979454;28;91130;-86
2022/11/13 00:02:33;;;;;;;3.50;2.20;;;20.70;65.50;;;;;;4977597;28;93572;-87
2022/11/13 00:04:58;;;;;;;4.35;2.47;;;20.70;65.50;;;;;;4975662;28;96162;-87
2022/11/13 00:07:24;;;;;;;3.85;2.25;;;20.70;65.50;;;;;;4975985;28;93138;-87
2022/11/13 00:09:50;;;;;;;3.30;2.20;;;20.70;65.50;;;;;;4977502;28;92521;-87
2022/11/13 00:12:15;;;;;;;3.13;2.05;;;20.70;65.30;;;;;;4976772;28;96679;-87
2022/11/13 00:14:41;;;;;;;3.25;2.22;;;20.70;65.40;;;;;;4976469;28;93023;-87
2022/11/13 00:17:06;;;;;;;3.20;2.45;;;20.70;65.60;;;;;;4978030;28;92126;-87
2022/11/13 00:19:32;;;;;;;2.50;2.30;;;20.70;65.40;;;;;;4977590;28;92909;-87
2022/11/13 00:21:59;;;;;;;3.83;2.30;;;20.70;65.60;;;;;;4977018;28;93617;-88
2022/11/13 00:24:24;;;;;;;3.15;2.28;;;20.60;65.60;;;;;;4978899;28;93000;-87
2022/11/13 00:26:50;;;;;;;6.03;2.75;;;20.60;65.30;;;;;;4977680;28;91944;-87
2022/11/13 00:29:16;;;;;;;6.00;2.47;;;20.60;65.40;;;;;;4976706;28;91954;-87
2022/11/13 00:31:41;;;;;;;4.40;2.50;;;20.60;65.60;;;;;;4976643;28;94476;-87
2022/11/13 00:34:09;;;;;;;4.22;2.47;;;20.60;65.50;;;;;;4977529;28;94318;-87
2022/11/13 00:36:35;;;;;;;3.17;2.42;;;20.60;65.70;;;;;;4975894;28;92999;-87
2022/11/13 00:39:00;;;;;;;5.28;2.90;;;20.60;65.50;;;;;;4978326;28;92275;-87
2022/11/13 00:41:26;;;;;;;3.03;2.30;;;20.60;65.60;;;;;;4977654;28;93650;-87
2022/11/13 00:43:51;;;;;;;4.13;2.33;;;20.60;65.60;;;;;;4977346;28;92292;-87
2022/11/13 00:46:17;;;;;;;3.55;2.15;;;20.50;65.50;;;;;;5009448;28;92486;-87
2022/11/13 00:48:43;;;;;;;4.10;2.63;;;20.60;65.50;;;;;;4978411;28;91097;-87
2022/11/13 00:51:09;;;;;;;4.20;2.40;;;20.60;65.50;;;;;;4978305;28;93720;-87
2022/11/13 00:53:35;;;;;;;3.53;2.20;;;20.50;65.50;;;;;;4978002;28;93268;-87
2022/11/13 00:56:01;;;;;;;4.30;2.42;;;20.60;65.50;;;;;;4977489;28;93167;-86
2022/11/13 00:58:26;;;;;;;4.60;2.25;;;20.50;65.50;;;;;;4977695;28;91823;-87
2022/11/13 01:00:52;;;;;;;3.80;2.30;;;20.50;65.50;;;;;;4977071;28;93657;-86
2022/11/13 01:03:18;;;;;;;3.60;2.08;;;20.50;65.50;;;;;;4978211;28;92819;-87
2022/11/13 01:05:44;;;;;;;3.72;2.38;;;20.50;65.60;;;;;;4978010;28;91978;-87
2022/11/13 01:08:11;;;;;;;2.92;2.10;;;20.50;65.60;;;;;;4977920;28;91960;-87
2022/11/13 01:10:44;;;;;;;3.30;2.15;;;20.50;65.80;;;;;;4977269;28;93507;-87
2022/11/13 01:13:10;;;;;;;3.92;2.75;;;20.50;65.70;;;;;;4977266;28;93347;-87
2022/11/13 01:15:40;;;;;;;2.75;2.05;;;20.40;65.60;;;;;;4977651;28;92812;-87
2022/11/13 01:18:06;;;;;;;2.95;2.00;;;20.40;65.50;;;;;;4977635;28;92224;-87
2022/11/13 01:20:32;;;;;;;3.45;2.55;;;20.50;65.60;;;;;;4976043;28;94315;-87
2022/11/13 01:22:57;;;;;;;3.33;2.38;;;20.40;65.60;;;;;;4976234;28;94315;-87
2022/11/13 01:25:23;;;;;;;4.05;2.30;;;20.40;65.40;;;;;;5009308;28;91904;-87
2022/11/13 01:27:49;;;;;;;2.65;1.98;;;20.40;65.50;;;;;;4977237;28;92516;-87
2022/11/13 01:30:15;;;;;;;3.60;2.20;;;20.40;65.40;;;;;;4977448;28;93651;-87
2022/11/13 01:32:41;;;;;;;3.13;2.22;;;20.40;65.50;;;;;;4977628;28;93390;-87
2022/11/13 01:35:07;;;;;;;5.18;2.83;;;20.40;65.40;;;;;;4976672;28;92240;-88
2022/11/13 01:37:32;;;;;;;2.90;2.50;;;20.40;65.40;;;;;;4977741;28;91285;-87
2022/11/13 01:39:58;;;;;;;2.90;2.10;;;20.40;65.40;;;;;;4976752;28;93829;-87
2022/11/13 01:42:24;;;;;;;2.78;2.08;;;20.40;65.40;;;;;;5009632;28;96267;-87
2022/11/13 01:44:55;;;;;;;4.18;2.25;;;20.40;65.60;;;;;;4975784;28;93120;-87
2022/11/13 01:47:22;;;;;;;4.43;2.63;;;20.40;65.40;;;;;;4977193;28;91882;-87
2022/11/13 01:49:51;;;;;;;3.22;2.10;;;20.40;65.40;;;;;;4974910;28;96435;-87
2022/11/13 01:52:30;;;;;;;4.72;2.85;;;20.40;65.40;;;;;;4976742;28;93323;-87
2022/11/13 01:55:11;;;;;;;2.60;1.92;;;20.30;65.20;;;;;;4977119;28;92382;-87
2022/11/13 01:57:37;;;;;;;3.13;2.22;;;20.30;65.30;;;;;;4964414;28;92220;-87
2022/11/13 02:00:08;;;;;;;3.20;2.13;;;20.30;65.30;;;;;;4975557;28;95940;-87
2022/11/13 02:02:34;;;;;;;4.22;2.63;;;20.30;65.50;;;;;;4977308;28;92773;-87
2022/11/13 02:05:00;;;;;;;3.83;2.28;;;20.30;65.50;;;;;;4976853;28;92089;-87
2022/11/13 02:07:26;;;;;;;3.45;2.38;;;20.30;65.50;;;;;;5008093;28;92271;-86
2022/11/13 02:09:54;;;;;;;5.63;2.50;;;20.30;65.70;;;;;;4975988;28;93695;-87
2022/11/13 02:12:34;;;;;;;2.73;2.20;;;20.20;65.30;;;;;;4957165;28;94203;-87
2022/11/13 02:15:04;;;;;;;2.85;2.10;;;20.30;65.40;;;;;;4976340;28;92082;-87
2022/11/13 02:17:35;;;;;;;3.38;2.30;;;20.30;65.40;;;;;;4976449;28;92442;-87
2022/11/13 02:20:05;;;;;;;3.42;2.22;;;20.30;65.40;;;;;;4976187;28;93432;-87
2022/11/13 02:22:48;;;;;;;4.25;2.47;;;20.20;65.50;;;;;;4976099;28;93694;-87
2022/11/13 02:25:15;;;;;;;3.75;2.50;;;20.20;65.50;;;;;;5009880;28;92054;-87
2022/11/13 02:27:47;;;;;;;2.65;2.17;;;20.20;65.40;;;;;;4980232;28;91163;-87
2022/11/13 02:30:23;;;;;;;3.53;2.53;;;20.20;65.40;;;;;;4980691;28;93606;-87
2022/11/13 02:32:51;;;;;;;4.30;2.40;;;20.20;66.30;;;;;;4980070;28;93090;-87
2022/11/13 02:35:29;;;;;;;3.42;2.35;;;20.20;65.40;;;;;;4979530;28;92957;-87
2022/11/13 02:37:59;;;;;;;2.75;1.88;;;20.20;65.40;;;;;;4979254;28;91945;-87
2022/11/13 02:40:26;;;;;;;3.20;2.15;;;20.20;65.40;;;;;;4980056;28;92741;-87
2022/11/13 02:42:51;;;;;;;3.63;2.47;;;20.20;65.30;;;;;;4979223;28;92174;-87
2022/11/13 02:45:17;;;;;;;3.13;2.05;;;20.20;65.30;;;;;;4980767;28;91926;-87
2022/11/13 02:47:43;;;;;;;3.03;2.13;;;20.20;65.40;;;;;;4979500;28;92151;-87
2022/11/13 02:50:10;;;;;;;2.85;2.10;;;20.20;65.40;;;;;;4979425;28;92910;-87
2022/11/13 02:52:36;;;;;;;3.42;2.25;;;20.20;65.40;;;;;;4979523;28;92902;-87
2022/11/13 02:55:03;;;;;;;4.70;2.58;;;20.20;65.50;;;;;;4979675;28;91887;-87
2022/11/13 02:57:28;;;;;;;3.28;2.22;;;20.20;65.30;;;;;;4978999;28;91904;-87
2022/11/13 02:59:54;;;;;;;3.10;2.28;;;20.20;65.40;;;;;;4977664;28;97612;-87
2022/11/13 03:02:19;;;;;;;3.17;2.25;;;20.10;65.50;;;;;;4979077;28;93198;-87
2022/11/13 03:04:45;;;;;;;3.15;2.13;;;20.20;65.50;;;;;;4978558;28;92316;-87
2022/11/13 03:07:12;;;;;;;2.38;2.17;;;20.20;66.40;;;;;;4979436;28;92153;-87
2022/11/13 03:09:38;;;;;;;3.72;2.17;;;20.10;65.50;;;;;;4979033;28;93687;-87
2022/11/13 03:12:05;;;;;;;3.65;2.58;;;20.10;65.60;;;;;;4979393;28;92697;-87
2022/11/13 03:14:31;;;;;;;2.67;2.30;;;20.10;65.30;;;;;;4980548;28;92305;-87
2022/11/13 03:16:57;;;;;;;3.55;2.40;;;20.10;65.40;;;;;;4979253;28;91149;-87
2022/11/13 03:19:22;;;;;;;4.80;2.60;;;20.10;65.30;;;;;;4979023;28;93534;-88
2022/11/13 03:21:48;;;;;;;3.78;2.47;;;20.10;65.40;;;;;;4978628;28;92526;-87
2022/11/13 03:24:13;;;;;;;2.83;2.50;;;20.10;65.40;;;;;;4979435;28;92743;-87
2022/11/13 03:26:39;;;;;;;2.92;2.45;;;20.10;65.50;;;;;;5010711;28;92270;-86
2022/11/13 03:29:04;;;;;;;3.10;2.20;;;20.00;65.70;;;;;;4978242;28;92647;-87
2022/11/13 03:31:30;;;;;;;2.92;2.22;;;20.00;65.60;;;;;;5010672;28;95881;-87
2022/11/13 03:33:56;;;;;;;3.03;2.20;;;20.00;65.80;;;;;;4979164;28;92284;-87
2022/11/13 03:36:21;;;;;;;2.90;2.25;;;20.00;65.80;;;;;;4978828;28;92359;-87
2022/11/13 03:38:47;;;;;;;4.07;2.30;;;20.00;65.80;;;;;;5010462;28;96935;-86
2022/11/13 03:41:15;;;;;;;3.85;2.60;;;20.00;65.80;;;;;;4978556;28;93205;-86
2022/11/13 03:43:41;;;;;;;2.25;2.05;;;20.00;65.80;;;;;;4979002;28;91824;-87
2022/11/13 03:46:07;;;;;;;3.58;2.20;;;20.00;65.80;;;;;;4978889;28;91825;-86
2022/11/13 03:48:33;;;;;;;3.20;2.25;;;19.90;65.70;;;;;;4978157;28;94656;-87
2022/11/13 03:50:59;;;;;;;3.10;2.47;;;20.00;65.70;;;;;;4978981;28;94004;-87
2022/11/13 03:53:24;;;;;;;2.60;2.08;;;20.00;65.80;;;;;;4979157;28;92013;-87
2022/11/13 03:55:50;;;;;;;3.72;2.63;;;20.00;65.70;;;;;;4978535;28;92098;-87
2022/11/13 03:58:16;;;;;;;2.78;2.42;;;19.90;66.50;;;;;;4976820;28;94788;-87
2022/11/13 04:00:43;;;;;;;2.67;2.33;;;20.00;65.80;;;;;;4978022;28;93255;-87
2022/11/13 04:03:09;;;;;;;3.45;2.50;;;20.00;65.60;;;;;;4977642;28;92788;-87
2022/11/13 04:05:35;;;;;;;2.20;1.98;;;19.90;65.50;;;;;;4978728;28;91166;-87
2022/11/13 04:08:01;;;;;;;2.80;2.28;;;19.90;65.60;;;;;;4978118;28;93660;-87
2022/11/13 04:10:27;;;;;;;3.72;2.33;;;19.90;65.70;;;;;;4976544;28;96300;-87
2022/11/13 04:12:52;;;;;;;3.53;2.42;;;19.90;65.90;;;;;;4977803;28;92984;-87
2022/11/13 04:15:18;;;;;;;2.30;2.10;;;19.90;65.70;;;;;;4979157;28;92092;-87
2022/11/13 04:17:43;;;;;;;3.63;2.30;;;19.90;65.70;;;;;;4978439;28;93277;-87
2022/11/13 04:20:09;;;;;;;4.30;2.10;;;19.90;65.60;;;;;;4977696;28;93405;-88
2022/11/13 04:22:35;;;;;;;3.15;2.38;;;19.90;65.70;;;;;;4976426;28;91999;-86
2022/11/13 04:25:01;;;;;;;3.15;2.13;;;19.90;65.60;;;;;;4977895;28;92371;-87
2022/11/13 04:27:26;;;;;;;2.53;2.13;;;19.90;65.60;;;;;;4977916;28;93154;-87
2022/11/13 04:29:52;;;;;;;2.65;2.25;;;19.80;65.60;;;;;;4975564;28;96027;-87
2022/11/13 04:32:18;;;;;;;2.92;2.20;;;19.80;65.70;;;;;;4977004;28;92006;-87
2022/11/13 04:34:43;;;;;;;3.30;2.30;;;19.80;65.70;;;;;;4977126;28;92047;-87
2022/11/13 04:37:09;;;;;;;3.30;2.45;;;19.80;65.70;;;;;;4976818;28;93799;-87
2022/11/13 04:39:34;;;;;;;2.78;2.13;;;19.80;65.60;;;;;;4977214;28;94069;-87
2022/11/13 04:44:45;;;;;;;2.38;1.80;;;19.80;65.60;;;;;;4965497;28;91838;-87
2022/11/13 04:47:11;;;;;;;2.78;2.42;;;19.80;65.40;;;;;;4976430;28;93680;-87
2022/11/13 04:49:37;;;;;;;3.20;2.30;;;19.80;65.40;;;;;;5008865;28;96621;-87
2022/11/13 04:52:03;;;;;;;2.47;2.22;;;19.80;65.70;;;;;;4978100;28;92194;-86
2022/11/13 04:54:28;;;;;;;3.13;2.13;;;19.80;65.30;;;;;;4978589;28;91193;-87
2022/11/13 04:56:54;;;;;;;3.00;2.35;;;19.80;65.60;;;;;;4977610;28;97401;-87
2022/11/13 04:59:20;;;;;;;3.13;2.33;;;19.80;65.40;;;;;;4975746;28;96476;-87
2022/11/13 05:01:45;;;;;;;2.47;2.08;;;19.80;65.60;;;;;;4976973;28;92791;-87
2022/11/13 05:04:12;;;;;;;3.03;2.20;;;19.80;65.60;;;;;;4977628;28;91930;-87
2022/11/13 05:06:38;;;;;;;2.25;2.03;;;19.80;65.40;;;;;;4977348;28;93644;-87
2022/11/13 05:09:04;;;;;;;3.20;2.20;;;19.70;65.80;;;;;;4977785;28;93097;-87
2022/11/13 05:11:29;;;;;;;2.53;2.22;;;19.70;65.40;;;;;;4977404;28;91931;-87
2022/11/13 05:13:55;;;;;;;2.83;2.42;;;19.70;65.40;;;;;;4975757;28;92009;-87
2022/11/13 05:16:21;;;;;;;3.08;2.25;;;19.70;65.50;;;;;;4976800;28;93524;-87
2022/11/13 05:18:47;;;;;;;5.82;2.40;;;19.70;65.80;;;;;;4977575;28;92557;-86
2022/11/13 05:21:12;;;;;;;2.33;2.00;;;19.70;65.60;;;;;;4978410;28;92260;-87
2022/11/13 05:23:38;;;;;;;3.35;2.17;;;19.70;66.20;;;;;;4976955;28;92021;-87
2022/11/13 05:26:09;;;;;;;3.13;2.30;;;19.70;65.60;;;;;;4975953;28;94860;-87
2022/11/13 05:28:36;;;;;;;2.45;2.17;;;19.70;65.40;;;;;;4977224;28;94254;-87
2022/11/13 05:31:10;;;;;;;2.45;2.25;;;19.70;65.50;;;;;;4975704;28;91825;-87
2022/11/13 05:33:37;;;;;;;3.63;2.63;;;19.70;65.40;;;;;;4976809;28;91908;-87
2022/11/13 05:36:08;;;;;;;2.88;2.20;;;19.70;65.50;;;;;;4977288;28;93668;-87
2022/11/13 05:38:35;;;;;;;2.45;2.25;;;19.70;65.20;;;;;;4975447;28;96701;-87
2022/11/13 05:41:09;;;;;;;2.47;2.17;;;19.70;65.50;;;;;;4977346;28;92233;-87
2022/11/13 05:43:36;;;;;;;3.92;2.45;;;19.60;65.50;;;;;;4960237;28;91719;-87
2022/11/13 05:46:04;;;;;;;3.15;2.45;;;19.60;65.40;;;;;;5007942;28;97120;-87
2022/11/13 05:48:30;;;;;;;3.13;2.25;;;19.60;65.50;;;;;;4975138;28;96353;-86
2022/11/13 05:51:26;;;;;;;2.70;2.15;;;19.60;65.30;;;;;;4977096;28;92808;-87
2022/11/13 05:53:53;;;;;;;3.15;2.40;;;19.60;65.20;;;;;;4974174;28;92150;-87
2022/11/13 05:56:22;;;;;;;3.28;2.42;;;19.60;65.20;;;;;;4973346;28;96352;-87
2022/11/13 05:58:48;;;;;;;3.83;2.40;;;19.60;65.10;;;;;;4975040;28;93048;-86
2022/11/13 06:01:15;;;;;;;2.85;2.38;;;19.60;65.10;;;;;;4960530;28;92709;-87
2022/11/13 06:03:42;;;;;;;2.53;2.33;;;19.60;65.10;;;;;;4977748;28;92044;-87
2022/11/13 06:06:10;;;;;;;3.20;2.28;;;19.60;65.00;;;;;;4978636;28;93750;-87
2022/11/13 06:08:36;;;;;;;2.90;2.45;;;19.60;65.00;;;;;;4978332;28;92955;-87
2022/11/13 06:11:05;;;;;;;2.63;2.17;;;19.60;65.00;;;;;;4977782;28;92120;-87
2022/11/13 06:13:31;;;;;;;3.07;2.27;;;19.60;65.10;;;;;;4977979;28;92347;-87
2022/11/13 06:16:07;;;;;;;2.72;2.22;;;19.60;65.00;;;;;;4977273;28;98054;-87
2022/11/13 06:18:33;;;;;;;2.63;2.22;;;19.60;65.10;;;;;;4977542;28;94954;-87
2022/11/13 06:21:06;;;;;;;2.53;2.30;;;19.50;65.00;;;;;;4978664;28;92319;-87
2022/11/13 06:23:33;;;;;;;2.42;2.20;;;19.60;64.80;;;;;;4976962;28;92432;-87
2022/11/13 06:26:07;;;;;;;2.90;2.60;;;19.50;65.00;;;;;;4977264;28;92839;-87
2022/11/13 06:28:33;;;;;;;3.13;2.35;;;19.50;65.00;;;;;;4960942;28;95044;-87
2022/11/13 06:31:26;;;;;;;2.20;2.00;;;19.50;65.10;;;;;;4977920;28;91976;-87
2022/11/13 06:33:52;;;;;;;2.83;2.17;;;19.50;64.90;;;;;;4976813;28;91491;-87
2022/11/13 06:36:24;;;;;;;2.47;2.00;;;19.60;65.00;;;;;;4977245;28;93745;-87
2022/11/13 06:38:50;;;;;;;2.45;2.20;;;19.50;65.00;;;;;;4976486;28;93274;-87
2022/11/13 06:41:19;;;;;;;3.13;2.38;;;19.50;64.90;;;;;;4976639;28;94281;-87
2022/11/13 06:43:46;;;;;;;2.53;2.25;;;19.50;64.80;;;;;;4976374;28;92119;-87
2022/11/13 06:46:14;;;;;;;3.00;2.30;;;19.50;64.90;;;;;;4976876;28;93186;-87
2022/11/13 06:48:40;;;;;;;2.90;2.42;;;19.50;64.90;;;;;;4976671;28;100157;-87
2022/11/13 06:51:09;;;;;;;2.40;2.20;;;19.50;65.00;;;;;;4978128;28;92092;-87
2022/11/13 06:53:34;;;;;;;3.07;2.13;;;19.50;65.00;;;;;;4976502;28;92095;-87
2022/11/13 06:56:00;;;;;;;2.28;2.08;;;19.60;65.50;;;;;;4976498;28;93598;-86
2022/11/13 06:58:26;;;;;;;8.07;2.65;;;19.70;64.10;;;;;;4977328;28;93252;-85
2022/11/13 07:00:52;;;;;;;3.90;2.60;;;19.90;64.00;;;;;;4977489;28;92387;-86
2022/11/13 07:03:23;;;;;;;7.63;2.45;;;20.00;63.50;;;;;;4956669;28;92966;-86
2022/11/13 07:05:49;;;;;;;5.63;2.00;;;20.10;63.40;;;;;;4956091;28;94226;-86
2022/11/13 07:08:15;;;;;;;6.00;2.65;;;20.20;63.30;;;;;;4934483;28;95230;-85
2022/11/13 07:10:42;;;;;;;4.00;2.63;;;20.30;63.10;;;;;;4927045;28;92335;-86
2022/11/13 07:13:08;;;;;;;2.78;2.30;;;20.50;63.00;;;;;;4951221;28;92500;-84
2022/11/13 07:15:37;;;;;;;6.57;2.70;;;20.70;62.70;;;;;;4946667;28;93950;-85
2022/11/13 07:18:04;;;;;;;;;;;20.80;62.70;;;;;;4933670;28;92430;-84
2022/11/13 07:20:30;;;;;;;5.60;3.00;;;21.00;62.50;;;;;;4946589;28;92396;-84
2022/11/13 07:23:00;;;;;;;5.28;3.22;;;21.10;62.80;;;;;;4957778;28;91397;-87
2022/11/13 07:25:27;;;;;;;16.50;3.90;;;21.20;62.90;;;;;;4956690;28;96858;-85
2022/11/13 07:27:55;;;;;;;4.70;2.83;;;21.40;62.80;;;;;;4948201;28;93498;-86
2022/11/13 07:30:21;;;;;;;11.00;3.57;;;21.40;62.70;;;;;;4947895;28;93095;-87
2022/11/13 07:32:47;;;;;;;5.95;3.05;;;21.40;62.50;;;;;;4938655;28;92293;-88
2022/11/13 07:35:13;;;;;;;14.43;3.40;;;21.40;62.80;;;;;;4939896;28;92653;-85
2022/11/13 07:37:39;;;;;;;7.15;3.17;;;21.50;62.50;;;;;;4941358;28;93050;-86
2022/11/13 07:40:05;;;;;;;9.05;4.10;;;21.50;62.40;;;;;;4952989;28;92784;-86
2022/11/13 07:42:31;;;;;;;9.55;4.32;;;21.50;62.60;;;;;;4947915;28;92160;-86
2022/11/13 07:44:56;;;;;;;11.02;3.05;;;21.50;62.70;;;;;;4945860;28;93271;-86
2022/11/13 07:47:23;;;;;;;10.75;3.60;;;21.50;62.90;;;;;;4979207;28;93417;-86
2022/11/13 07:49:48;;;;;;;9.50;3.72;;;21.50;62.80;;;;;;4979274;28;92052;-86
2022/11/13 07:52:14;;;;;;;15.68;4.95;;;21.50;63.20;;;;;;4978156;28;92100;-86
2022/11/13 07:54:40;;;;;;;13.77;4.55;;;21.50;60.50;;;;;;4993077;28;97172;-87
2022/11/13 07:57:05;;;;;;;11.27;3.78;;;21.50;61.30;;;;;;4975828;28;97102;-87
2022/11/13 07:59:31;;;;;;;18.08;3.50;;;21.50;62.90;;;;;;4976143;28;92036;-86
2022/11/13 08:01:57;;;;;;;25.52;6.20;;;21.40;62.90;;;;;;4976152;28;92115;-89
2022/11/13 08:04:22;;;;;;;16.85;6.10;;;21.40;60.00;;;;;;4976123;28;93646;-87
2022/11/13 08:06:48;;;;;;;18.35;4.68;;;21.40;58.60;;;;;;4974986;28;93293;-87
2022/11/13 08:09:14;;;;;;;11.93;4.85;;;21.40;60.70;;;;;;4960683;28;92225;-88
2022/11/13 08:11:40;;;;;;;16.08;4.60;;;21.30;61.50;;;;;;4974741;28;91265;-87
2022/11/13 08:14:06;;;;;;;12.07;3.88;;;21.40;61.80;;;;;;4957366;28;95563;-87
2022/11/13 08:16:31;;;;;;;16.15;4.68;;;21.30;61.60;;;;;;4957808;28;94133;-87
2022/11/13 08:18:57;;;;;;;25.15;4.43;;;21.40;61.80;;;;;;4954040;28;92937;-93
2022/11/13 08:21:23;;;;;;;12.95;4.15;;;21.50;61.90;;;;;;4957006;28;92477;-91
2022/11/13 08:23:49;;;;;;;16.95;4.15;;;21.50;62.10;;;;;;4954229;28;92699;-93
2022/11/13 08:26:17;;;;;;;21.65;4.50;;;21.50;62.20;;;;;;4954685;28;93586;-92
2022/11/13 08:28:43;;;;;;;17.50;5.15;;;21.50;62.50;;;;;;4970498;28;92368;-92
2022/11/13 08:31:11;;;;;;;21.17;5.30;;;21.50;62.70;;;;;;4958471;28;92094;-93
2022/11/13 08:33:36;;;;;;;21.65;5.70;;;21.60;62.50;;;;;;4975222;28;93345;-92
2022/11/13 08:36:02;;;;;;;23.67;5.97;;;21.70;62.30;;;;;;4976146;28;93531;-92
2022/11/13 08:38:28;;;;;;;22.60;5.25;;;21.70;62.10;;;;;;4975770;28;92259;-93
2022/11/13 08:40:57;;;;;;;23.48;4.97;;;21.80;62.60;;;;;;4975455;28;92238;-92
2022/11/13 08:43:23;;;;;;;;;;;21.90;62.60;;;;;;4974282;28;94265;-92
2022/11/13 08:45:48;;;;;;;23.17;6.28;;;22.00;62.50;;;;;;4975504;28;93820;-92
2022/11/13 08:48:14;;;;;;;24.60;6.20;;;22.10;62.20;;;;;;4975723;28;91992;-92
2022/11/13 08:50:40;;;;;;;29.77;7.75;;;22.20;61.80;;;;;;4977029;28;92371;-86
2022/11/13 08:53:06;;;;;;;31.60;7.70;;;22.20;61.70;;;;;;4977452;28;93021;-86
2022/11/13 08:55:32;;;;;;;41.35;9.20;;;22.30;61.30;;;;;;4977585;28;93496;-88
2022/11/13 08:57:59;;;;;;;29.27;8.73;;;22.40;60.70;;;;;;4978228;28;92400;-87
2022/11/13 09:00:26;;;;;;;44.35;11.40;;;22.30;60.80;;;;;;4978867;28;91580;-88
2022/11/13 09:02:56;;;;;;;48.05;12.65;;;22.30;60.00;;;;;;4976832;28;93659;-86
2022/11/13 09:05:22;;;;;;;50.35;13.88;;;22.30;59.20;;;;;;4963271;28;93678;-88
2022/11/13 09:07:51;;;;;;;39.88;12.07;;;22.30;58.50;;;;;;4976953;28;92928;-88
2022/11/13 09:10:24;;;;;;;37.42;10.68;;;22.20;57.90;;;;;;4979196;28;92179;-88
2022/11/13 09:13:04;;;;;;;52.67;11.88;;;22.30;58.70;;;;;;4977583;28;92818;-89
2022/11/13 09:15:31;;;;;;;34.97;11.63;;;22.40;58.80;;;;;;4977525;28;92784;-87
2022/11/13 09:17:58;;;;;;;42.35;12.10;;;22.30;58.80;;;;;;4977016;28;91879;-85
2022/11/13 09:20:24;;;;;;;42.95;11.73;;;22.30;58.50;;;;;;4975406;28;92390;-85
2022/11/13 09:23:06;;;;;;;36.85;11.13;;;22.20;58.80;;;;;;4983130;28;93385;-84
2022/11/13 09:25:34;;;;;;;37.50;11.85;;;22.20;58.60;;;;;;4974450;28;92915;-92
2022/11/13 09:28:00;;;;;;;34.47;12.38;;;22.10;58.50;;;;;;4977423;28;92598;-92
2022/11/13 09:30:27;;;;;;;46.78;11.93;;;22.20;58.30;;;;;;4977515;28;92515;-90
2022/11/13 09:32:56;;;;;;;44.92;13.07;;;22.00;58.30;;;;;;4975657;28;94128;-90
2022/11/13 09:35:34;;;;;;;43.58;13.95;;;22.00;58.90;;;;;;4979826;28;94380;-92
2022/11/13 09:38:08;;;;;;;41.38;13.35;;;22.10;59.40;;;;;;4979684;28;92043;-90
2022/11/13 09:40:39;;;;;;;56.65;16.55;;;22.10;59.80;;;;;;4979217;28;92110;-90
2022/11/13 09:43:10;;;;;;;49.92;16.52;;;22.10;59.20;;;;;;5010477;28;96701;-94
2022/11/13 09:45:38;;;;;;;38.67;14.27;;;22.10;58.00;;;;;;4980135;28;93694;-89
2022/11/13 09:48:27;;;;;;;42.20;13.95;;;22.20;57.50;;;;;;4981561;28;91975;-93
2022/11/13 09:50:54;;;;;;;39.00;12.43;;;22.20;57.40;;;;;;4984782;28;91248;-91
2022/11/13 09:53:20;;;;;;;33.88;12.15;;;22.30;56.90;;;;;;4980860;28;93047;-93
2022/11/13 09:56:01;;;;;;;29.65;11.68;;;22.20;56.40;;;;;;4981093;28;96268;-93
2022/11/13 09:58:41;;;;;;;30.88;10.93;;;22.20;56.20;;;;;;5005998;28;93083;-93
2022/11/13 10:01:20;;;;;;;29.50;11.20;;;22.20;56.10;;;;;;4980410;28;91883;-93
2022/11/13 10:03:47;;;;;;;;;;;22.10;55.70;;;;;;4980159;28;93267;-92
2022/11/13 10:06:23;;;;;;;29.30;9.93;;;22.10;55.10;;;;;;4983005;28;92561;-92
2022/11/13 10:08:59;;;;;;;32.20;10.43;;;22.20;55.10;;;;;;4978711;28;92492;-92
2022/11/13 10:11:47;;;;;;;28.77;10.38;;;22.20;55.60;;;;;;4970029;28;92355;-93
2022/11/13 10:14:25;;;;;;;31.27;10.73;;;22.20;55.70;;;;;;5011106;28;96406;-92
2022/11/13 10:17:10;;;;;;;26.42;9.57;;;22.20;55.70;;;;;;4990267;28;93451;-90
2022/11/13 10:19:39;;;;;;;29.77;10.05;;;22.30;56.00;;;;;;4986255;28;91961;-92
2022/11/13 10:22:25;;;;;;;23.77;9.32;;;22.40;55.90;;;;;;4979765;28;92067;-92
2022/11/13 10:24:53;;;;;;;24.85;9.38;;;22.40;56.40;;;;;;4967607;28;94124;-93
2022/11/13 10:27:25;;;;;;;22.95;8.93;;;22.40;56.70;;;;;;4980120;28;94281;-93
2022/11/13 10:29:53;;;;;;;29.27;10.35;;;22.50;56.70;;;;;;4979157;28;92288;-92
2022/11/13 10:32:25;;;;;;;25.55;9.20;;;22.50;55.80;;;;;;4979596;28;91815;-86
2022/11/13 10:35:11;;;;;;;22.52;9.10;;;22.50;54.40;;;;;;4979512;28;99207;-88
2022/11/13 10:38:02;;;;;;;20.05;8.82;;;22.50;54.20;;;;;;4979229;28;93282;-87
2022/11/13 10:40:30;;;;;;;24.63;8.50;;;22.40;53.90;;;;;;4979722;28;92476;-88
2022/11/13 10:43:17;;;;;;;17.57;8.07;;;22.40;53.30;;;;;;4979255;28;92786;-88
2022/11/13 10:45:56;;;;;;;19.95;8.23;;;22.40;52.90;;;;;;4977975;28;93600;-88
2022/11/13 10:48:27;;;;;;;24.55;7.97;;;22.40;54.40;;;;;;4979902;28;93324;-89
2022/11/13 10:51:18;;;;;;;20.80;9.13;;;22.40;54.80;;;;;;4979235;28;92877;-87
2022/11/13 10:53:44;;;;;;;21.38;7.55;;;22.40;54.90;;;;;;4980662;28;92165;-88
2022/11/13 10:56:30;;;;;;;22.30;7.65;;;22.50;54.00;;;;;;4978948;28;95147;-88
2022/11/13 10:59:12;;;;;;;23.23;7.22;;;22.60;54.20;;;;;;4979905;28;92822;-87
2022/11/13 11:01:41;;;;;;;17.58;7.13;;;22.60;55.10;;;;;;4981831;28;92338;-87
2022/11/13 11:04:13;;;;;;;28.47;7.43;;;22.70;55.20;;;;;;4983451;28;91883;-86
2022/11/13 11:06:40;;;;;;;23.75;7.90;;;22.70;55.60;;;;;;4969462;28;98109;-86
2022/11/13 11:09:24;;;;;;;22.60;7.60;;;22.70;55.90;;;;;;5010478;28;93208;-86
2022/11/13 11:12:22;;;;;;;20.67;8.02;;;22.70;56.40;;;;;;4980037;28;91924;-86
2022/11/13 11:14:59;;;;;;;18.13;6.43;;;22.70;57.10;;;;;;4977940;28;91987;-86
2022/11/13 11:17:31;;;;;;;17.85;7.05;;;22.60;57.40;;;;;;4978364;28;94242;-85
2022/11/13 11:20:19;;;;;;;17.52;7.30;;;22.60;57.80;;;;;;4979617;28;93946;-87
2022/11/13 11:22:48;;;;;;;16.67;6.95;;;22.70;58.00;;;;;;4976964;28;91945;-87
2022/11/13 11:25:24;;;;;;;24.90;8.10;;;22.70;58.10;;;;;;4979875;28;92370;-87
2022/11/13 11:28:04;;;;;;;17.45;7.43;;;22.70;58.10;;;;;;4979533;28;92301;-87
2022/11/13 11:30:41;;;;;;;17.95;7.05;;;22.60;58.20;;;;;;4995358;28;96453;-87
2022/11/13 11:33:15;;;;;;;16.55;6.45;;;22.70;58.20;;;;;;4979521;28;91895;-88
2022/11/13 11:35:51;;;;;;;19.55;6.60;;;22.60;57.80;;;;;;4979212;28;91140;-88
2022/11/13 11:38:35;;;;;;;16.08;6.63;;;22.60;57.10;;;;;;4978659;28;93436;-88
2022/11/13 11:41:13;;;;;;;15.20;6.47;;;22.60;57.20;;;;;;4977361;28;95308;-87
2022/11/13 11:43:43;;;;;;;20.02;7.00;;;22.60;57.70;;;;;;4978964;28;93209;-87
2022/11/13 11:46:13;;;;;;;15.05;6.70;;;22.60;58.20;;;;;;4979914;28;92454;-86
2022/11/13 11:48:39;;;;;;;20.05;6.63;;;22.60;58.30;;;;;;4978940;28;93344;-88
2022/11/13 11:51:28;;;;;;;19.60;6.60;;;22.60;58.50;;;;;;4979211;28;92339;-86
2022/11/13 11:54:05;;;;;;;22.15;7.10;;;22.70;59.50;;;;;;4968073;28;92233;-88
2022/11/13 11:56:36;;;;;;;17.33;7.35;;;22.60;58.40;;;;;;4978520;28;91935;-84
2022/11/13 11:59:32;;;;;;;17.85;6.75;;;22.70;58.00;;;;;;4978451;28;93138;-87
2022/11/13 12:02:33;;;;;;;16.25;7.10;;;22.70;58.40;;;;;;4978689;28;93119;-88
2022/11/13 12:05:21;;;;;;;15.57;6.00;;;22.70;58.30;;;;;;4968401;28;91887;-89
2022/11/13 12:08:05;;;;;;;22.85;6.85;;;22.70;56.80;;;;;;4978287;28;92252;-89
2022/11/13 12:10:55;;;;;;;19.52;7.07;;;22.70;58.20;;;;;;4981802;28;94657;-88
2022/11/13 12:13:36;;;;;;;16.42;6.45;;;22.70;58.30;;;;;;4980581;28;94447;-90
2022/11/13 12:16:09;;;;;;;14.07;6.03;;;22.70;56.80;;;;;;4978406;28;92449;-85
2022/11/13 12:18:47;;;;;;;18.13;6.90;;;22.60;56.80;;;;;;4978462;28;92866;-88
2022/11/13 12:21:28;;;;;;;14.85;6.10;;;22.60;57.10;;;;;;4990090;28;95340;-88
2022/11/13 12:24:21;;;;;;;23.98;7.18;;;22.50;57.40;;;;;;4969661;28;93475;-88
2022/11/13 12:27:02;;;;;;;19.33;6.13;;;22.40;58.10;;;;;;4978429;28;92534;-88
2022/11/13 12:29:48;;;;;;;16.33;6.38;;;22.40;58.20;;;;;;4978768;28;91112;-89
2022/11/13 12:32:28;;;;;;;16.38;6.32;;;22.40;58.40;;;;;;4978425;28;93232;-88
2022/11/13 12:35:03;;;;;;;19.73;6.78;;;22.30;58.40;;;;;;4977842;28;93399;-88
2022/11/13 12:38:08;;;;;;;17.83;5.72;;;22.30;58.50;;;;;;4977355;28;93793;-88
2022/11/13 12:40:58;;;;;;;17.17;5.97;;;22.30;58.50;;;;;;4975397;28;92080;-88
2022/11/13 12:44:02;;;;;;;13.00;4.72;;;22.30;59.30;;;;;;4974886;28;92210;-88
2022/11/13 12:46:36;;;;;;;12.93;6.07;;;22.30;58.70;;;;;;4958182;28;95558;-89
2022/11/13 12:49:02;;;;;;;16.20;6.53;;;22.20;58.80;;;;;;4975272;28;92420;-88
2022/11/13 12:51:38;;;;;;;13.15;5.68;;;22.20;58.90;;;;;;4974988;28;92443;-88
2022/11/13 12:54:54;;;;;;;12.48;5.88;;;22.20;58.90;;;;;;4974731;28;97730;-88
2022/11/13 12:57:23;;;;;;;14.18;5.55;;;22.20;58.80;;;;;;4975167;28;97663;-88
2022/11/13 12:59:56;;;;;;;9.27;4.72;;;22.10;58.90;;;;;;4958026;28;92154;-88